Time;durP1;ratioP1;P1;durP2;ratioP2;P2;SDS_P1;SDS_P2;PMS_P1;PMS_P2;Temp;Humidity;BMP_temperature;BMP_pressure;BME280_temperature;BME280_humidity;BME280_pressure;Samples;Min_cycle;Max_cycle;Signal;HPM_P1;HPM_P2
2023/07/20 00:00:17;;;;;;;;;;;15.60;99.90;;;;;;5089899;28;19924;-89
2023/07/20 00:02:42;;;;;;;;;;;15.60;99.90;;;;;;5087939;28;20006;-83
2023/07/20 00:05:08;;;;;;;;;;;15.60;99.90;;;;;;5056275;28;19924;-83
2023/07/20 00:07:34;;;;;;;;;;;15.60;99.90;;;;;;5091597;28;19924;-83
2023/07/20 00:09:59;;;;;;;;;;;15.60;99.90;;;;;;5094751;28;19924;-81
2023/07/20 00:12:25;;;;;;;;;;;15.60;99.90;;;;;;5076841;28;19950;-83
2023/07/20 00:14:53;;;;;;;;;;;15.60;99.90;;;;;;5094094;28;19928;-84
2023/07/20 00:17:19;;;;;;;;;;;15.50;99.90;;;;;;5075210;28;20272;-84
2023/07/20 00:19:44;;;;;;;;;;;15.60;99.90;;;;;;5090700;28;19993;-83
2023/07/20 00:22:10;;;;;;;;;;;15.50;99.90;;;;;;5092459;28;19972;-83
2023/07/20 00:24:36;;;;;;;;;;;15.50;99.90;;;;;;5093139;28;19943;-83
2023/07/20 00:27:02;;;;;;;;;;;15.50;99.90;;;;;;5075056;28;19924;-83
2023/07/20 00:29:28;;;;;;;;;;;15.50;99.90;;;;;;5091122;28;19971;-83
2023/07/20 00:31:53;;;;;;;;;;;15.50;99.90;;;;;;5091429;28;19966;-83
2023/07/20 00:34:19;;;;;;;;;;;15.50;99.90;;;;;;5073947;28;20016;-83
2023/07/20 00:36:44;;;;;;;;;;;15.40;99.90;;;;;;5092590;28;19924;-83
2023/07/20 00:39:10;;;;;;;;;;;15.40;99.90;;;;;;5076171;28;20396;-83
2023/07/20 00:41:35;;;;;;;;;;;15.40;99.90;;;;;;5090364;28;19928;-83
2023/07/20 00:44:01;;;;;;;;;;;15.40;99.90;;;;;;5092466;28;20366;-86
2023/07/20 00:46:27;;;;;;;;;;;15.40;99.90;;;;;;5091485;28;19932;-83
2023/07/20 00:48:53;;;;;;;;;;;15.30;99.90;;;;;;5074327;28;19931;-83
2023/07/20 00:51:19;;;;;;;;;;;15.30;99.90;;;;;;5093388;28;20403;-83
2023/07/20 00:53:45;;;;;;;;;;;15.30;99.90;;;;;;5092124;28;19935;-83
2023/07/20 00:56:11;;;;;;;;;;;15.20;99.90;;;;;;5091190;28;19928;-84
2023/07/20 00:58:37;;;;;;;;;;;15.20;99.90;;;;;;5091039;28;20015;-83
2023/07/20 01:01:03;;;;;;;;;;;15.20;99.90;;;;;;5092051;28;20434;-83
2023/07/20 01:03:28;;;;;;;;;;;15.20;99.90;;;;;;5095731;28;20342;-83
2023/07/20 01:05:59;;;;;;;;;;;15.20;99.90;;;;;;5070080;28;19924;-84
2023/07/20 01:08:33;;;;;;;;;;;15.20;99.90;;;;;;5073625;28;19935;-85
2023/07/20 01:11:06;;;;;;;;;;;15.20;99.90;;;;;;5092201;28;19931;-83
2023/07/20 01:13:32;;;;;;;;;;;15.20;99.90;;;;;;5093762;28;20014;-83
2023/07/20 01:16:01;;;;;;;;;;;15.20;99.90;;;;;;5093130;28;19996;-84
2023/07/20 01:18:27;;;;;;;;;;;15.20;99.90;;;;;;5091087;28;20047;-84
2023/07/20 01:20:57;;;;;;;;;;;15.10;99.90;;;;;;5074459;28;20392;-84
2023/07/20 01:23:26;;;;;;;;;;;15.20;99.90;;;;;;5072454;28;19932;-85
2023/07/20 01:25:55;;;;;;;;;;;15.20;99.90;;;;;;5074288;28;19924;-84
2023/07/20 01:28:37;;;;;;;;;;;15.10;99.90;;;;;;5090978;28;19924;-85
2023/07/20 01:31:11;;;;;;;;;;;15.10;99.90;;;;;;5061492;28;19928;-83
2023/07/20 01:33:38;;;;;;;;;;;15.10;99.90;;;;;;5074926;28;20019;-84
2023/07/20 01:36:03;;;;;;;;;;;15.10;99.90;;;;;;5086051;28;19932;-83
2023/07/20 01:38:29;;;;;;;;;;;15.00;99.90;;;;;;5073419;28;19924;-83
2023/07/20 01:40:55;;;;;;;;;;;15.00;99.90;;;;;;5091496;28;19928;-85
2023/07/20 01:43:21;;;;;;;;;;;14.90;99.90;;;;;;5072893;28;19928;-83
2023/07/20 01:45:47;;;;;;;;;;;14.80;99.90;;;;;;5092261;28;19931;-83
2023/07/20 01:48:12;;;;;;;;;;;14.90;99.90;;;;;;5088555;28;19935;-83
2023/07/20 01:50:38;;;;;;;;;;;14.80;99.90;;;;;;5072432;28;20370;-85
2023/07/20 01:53:04;;;;;;;;;;;14.70;99.90;;;;;;5073293;28;19939;-83
2023/07/20 01:55:29;;;;;;;;;;;14.70;99.90;;;;;;5073625;28;19928;-83
2023/07/20 01:57:55;;;;;;;;;;;14.60;99.90;;;;;;5090167;28;19928;-85
2023/07/20 02:00:23;;;;;;;;;;;14.60;99.90;;;;;;5074189;28;19924;-83
2023/07/20 02:02:49;;;;;;;;;;;14.50;99.90;;;;;;5074759;28;19930;-84
2023/07/20 02:05:15;;;;;;;;;;;14.50;99.90;;;;;;5092745;28;19928;-83
2023/07/20 02:07:40;;;;;;;;;;;14.40;99.90;;;;;;5090664;28;19931;-84
2023/07/20 02:10:06;;;;;;;;;;;14.40;99.90;;;;;;5089357;28;19924;-83
2023/07/20 02:12:32;;;;;;;;;;;14.30;99.90;;;;;;5092835;28;19935;-83
2023/07/20 02:14:57;;;;;;;;;;;14.30;99.90;;;;;;5091156;28;19963;-84
2023/07/20 02:17:23;;;;;;;;;;;14.20;99.90;;;;;;5090783;28;20395;-83
2023/07/20 02:19:55;;;;;;;;;;;14.10;99.90;;;;;;5056752;28;19975;-83
2023/07/20 02:22:21;;;;;;;;;;;14.10;99.90;;;;;;5089052;28;20303;-83
2023/07/20 02:24:47;;;;;;;;;;;14.10;99.90;;;;;;5071885;28;19934;-83
2023/07/20 02:27:12;;;;;;;;;;;14.00;99.90;;;;;;5091160;28;20338;-83
2023/07/20 02:29:40;;;;;;;;;;;13.90;99.90;;;;;;5090143;28;19924;-84
2023/07/20 02:32:06;;;;;;;;;;;13.90;99.90;;;;;;5055893;28;20409;-83
2023/07/20 02:34:32;;;;;;;;;;;13.80;99.90;;;;;;5087898;28;19924;-84
2023/07/20 02:36:58;;;;;;;;;;;13.80;99.90;;;;;;5073041;28;20334;-84
2023/07/20 02:39:24;;;;;;;;;;;13.80;99.90;;;;;;5070498;28;19924;-84
2023/07/20 02:41:50;;;;;;;;;;;13.80;99.90;;;;;;5090191;28;20046;-84
2023/07/20 02:44:15;;;;;;;;;;;13.70;99.90;;;;;;5091694;28;19928;-84
2023/07/20 02:46:41;;;;;;;;;;;13.70;99.90;;;;;;5087152;28;19924;-85
2023/07/20 02:49:07;;;;;;;;;;;13.60;99.90;;;;;;5088276;28;20007;-83
2023/07/20 02:51:32;;;;;;;;;;;13.60;99.90;;;;;;5063491;28;19951;-83
2023/07/20 02:53:58;;;;;;;;;;;13.50;99.90;;;;;;5083442;28;20008;-84
2023/07/20 02:56:24;;;;;;;;;;;13.50;99.90;;;;;;5070746;28;19932;-84
2023/07/20 02:58:49;;;;;;;;;;;13.40;99.90;;;;;;5070857;28;20438;-83
2023/07/20 03:01:15;;;;;;;;;;;13.40;99.90;;;;;;5089334;28;20005;-83
2023/07/20 03:03:46;;;;;;;;;;;13.30;99.90;;;;;;5073872;28;20015;-84
2023/07/20 03:06:15;;;;;;;;;;;13.30;99.90;;;;;;5054331;28;19928;-83
2023/07/20 03:08:41;;;;;;;;;;;13.20;99.90;;;;;;5087786;28;19924;-84
2023/07/20 03:11:07;;;;;;;;;;;13.10;99.90;;;;;;5091428;28;20035;-83
2023/07/20 03:13:33;;;;;;;;;;;13.10;99.90;;;;;;5073533;28;19931;-83
2023/07/20 03:15:58;;;;;;;;;;;13.10;99.90;;;;;;5090512;28;20320;-83
2023/07/20 03:18:24;;;;;;;;;;;13.00;99.90;;;;;;5073471;28;20018;-84
2023/07/20 03:20:49;;;;;;;;;;;12.90;99.90;;;;;;5090227;28;19932;-84
2023/07/20 03:23:16;;;;;;;;;;;12.90;99.90;;;;;;5090789;28;19932;-83
2023/07/20 03:25:42;;;;;;;;;;;12.90;99.90;;;;;;5091482;28;19935;-83
2023/07/20 03:28:07;;;;;;;;;;;13.00;99.90;;;;;;5072281;28;19924;-83
2023/07/20 03:30:34;;;;;;;;;;;12.90;99.90;;;;;;5073179;28;20452;-86
2023/07/20 03:32:59;;;;;;;;;;;12.90;99.90;;;;;;5072309;28;19924;-84
2023/07/20 03:35:25;;;;;;;;;;;12.90;99.90;;;;;;5070784;28;19928;-83
2023/07/20 03:37:50;;;;;;;;;;;12.90;99.90;;;;;;5089623;28;20315;-83
2023/07/20 03:40:16;;;;;;;;;;;12.90;99.90;;;;;;5090187;28;20000;-83
2023/07/20 03:42:42;;;;;;;;;;;12.90;99.90;;;;;;5052499;28;19925;-83
2023/07/20 03:45:07;;;;;;;;;;;12.80;99.90;;;;;;5066268;28;19975;-83
2023/07/20 03:47:33;;;;;;;;;;;12.90;99.90;;;;;;5074442;28;19955;-83
2023/07/20 03:49:59;;;;;;;;;;;12.80;99.90;;;;;;5077426;28;19932;-83
2023/07/20 03:52:24;;;;;;;;;;;12.80;99.90;;;;;;5088402;28;19928;-85
2023/07/20 03:54:51;;;;;;;;;;;12.80;99.90;;;;;;5058587;28;19924;-84
2023/07/20 03:57:17;;;;;;;;;;;12.80;99.90;;;;;;5073434;28;20007;-84
2023/07/20 03:59:45;;;;;;;;;;;12.80;99.90;;;;;;5093737;28;19928;-84
2023/07/20 04:02:10;;;;;;;;;;;12.70;99.90;;;;;;5093088;28;19924;-84
2023/07/20 04:04:36;;;;;;;;;;;12.70;99.90;;;;;;5076025;28;19965;-85
2023/07/20 04:07:01;;;;;;;;;;;12.70;99.90;;;;;;5089095;28;20423;-84
2023/07/20 04:09:27;;;;;;;;;;;12.70;99.90;;;;;;5093197;28;19931;-83
2023/07/20 04:11:52;;;;;;;;;;;12.70;99.90;;;;;;5076169;28;19974;-84
2023/07/20 04:14:18;;;;;;;;;;;12.70;99.90;;;;;;5094776;28;20101;-82
2023/07/20 04:16:46;;;;;;;;;;;12.70;99.90;;;;;;5080355;28;19970;-83
2023/07/20 04:19:11;;;;;;;;;;;12.70;99.90;;;;;;5076590;28;19983;-84
2023/07/20 04:21:40;;;;;;;;;;;12.80;99.90;;;;;;5092995;28;19985;-83
2023/07/20 04:24:06;;;;;;;;;;;12.70;99.90;;;;;;5094729;28;20026;-83
2023/07/20 04:26:31;;;;;;;;;;;12.70;99.90;;;;;;5093649;28;20019;-83
2023/07/20 04:28:59;;;;;;;;;;;12.70;99.90;;;;;;5092409;28;19931;-83
2023/07/20 04:31:24;;;;;;;;;;;12.70;99.90;;;;;;5076433;28;19975;-85
2023/07/20 04:33:50;;;;;;;;;;;12.70;99.90;;;;;;5091623;28;19974;-84
2023/07/20 04:36:19;;;;;;;;;;;12.70;99.90;;;;;;5075035;28;19964;-83
2023/07/20 04:38:45;;;;;;;;;;;12.80;99.90;;;;;;5075692;28;20283;-83
2023/07/20 04:41:12;;;;;;;;;;;12.80;99.90;;;;;;5073984;28;19963;-84
2023/07/20 04:43:40;;;;;;;;;;;13.00;99.90;;;;;;5073847;28;19967;-83
2023/07/20 04:46:06;;;;;;;;;;;13.10;99.90;;;;;;5090540;28;19928;-84
2023/07/20 04:48:31;;;;;;;;;;;13.10;99.90;;;;;;5092357;28;19931;-83
2023/07/20 04:50:57;;;;;;;;;;;13.00;99.90;;;;;;5073330;28;19932;-84
2023/07/20 04:53:23;;;;;;;;;;;13.10;99.90;;;;;;5085847;28;19924;-82
2023/07/20 04:55:54;;;;;;;;;;;13.10;99.90;;;;;;5057071;28;19971;-83
2023/07/20 04:58:20;;;;;;;;;;;13.10;99.90;;;;;;5092743;28;19963;-84
2023/07/20 05:00:46;;;;;;;;;;;13.20;99.90;;;;;;5084604;28;19997;-83
2023/07/20 05:03:11;;;;;;;;;;;13.30;99.90;;;;;;5074920;28;20358;-84
2023/07/20 05:05:37;;;;;;;;;;;13.40;99.90;;;;;;5089961;28;19935;-84
2023/07/20 05:08:03;;;;;;;;;;;13.50;99.90;;;;;;5090367;28;19947;-85
2023/07/20 05:10:29;;;;;;;;;;;13.60;99.90;;;;;;5074162;28;20358;-83
2023/07/20 05:12:55;;;;;;;;;;;13.80;99.90;;;;;;5074338;28;19931;-84
2023/07/20 05:15:20;;;;;;;;;;;14.40;99.90;;;;;;5092952;28;19928;-84
2023/07/20 05:17:48;;;;;;;;;;;15.00;99.90;;;;;;5092840;28;19935;-84
2023/07/20 05:20:14;;;;;;;;;;;15.60;99.90;;;;;;5075164;28;19932;-83
2023/07/20 05:22:39;;;;;;;;;;;16.10;99.90;;;;;;5074473;28;19935;-84
2023/07/20 05:25:06;;;;;;;;;;;16.60;99.90;;;;;;5075195;28;20027;-84
2023/07/20 05:27:32;;;;;;;;;;;17.10;99.90;;;;;;5092588;28;20283;-83
2023/07/20 05:29:58;;;;;;;;;;;17.50;99.90;;;;;;5068402;28;19931;-85
2023/07/20 05:32:24;;;;;;;;;;;17.90;99.90;;;;;;5092009;28;19930;-84
2023/07/20 05:34:51;;;;;;;;;;;18.20;99.90;;;;;;5074584;28;20018;-83
2023/07/20 05:37:17;;;;;;;;;;;18.50;99.90;;;;;;5091621;28;19935;-84
2023/07/20 05:39:42;;;;;;;;;;;18.80;99.90;;;;;;5092542;28;19932;-84
2023/07/20 05:42:08;;;;;;;;;;;19.00;99.90;;;;;;5073424;28;19924;-84
2023/07/20 05:44:34;;;;;;;;;;;19.30;99.90;;;;;;5073935;28;19978;-84
2023/07/20 05:46:59;;;;;;;;;;;19.50;99.90;;;;;;5087580;28;20383;-84
2023/07/20 05:49:25;;;;;;;;;;;19.70;99.90;;;;;;5069763;28;19924;-85
2023/07/20 05:51:50;;;;;;;;;;;19.90;99.90;;;;;;5090042;28;20356;-84
2023/07/20 05:54:16;;;;;;;;;;;20.00;99.90;;;;;;5067607;28;19930;-82
2023/07/20 05:56:41;;;;;;;;;;;20.20;99.90;;;;;;5092245;28;19975;-85
2023/07/20 05:59:07;;;;;;;;;;;20.30;99.90;;;;;;5073497;28;20026;-85
2023/07/20 06:01:33;;;;;;;;;;;20.50;99.90;;;;;;5091716;28;19925;-85
2023/07/20 06:03:58;;;;;;;;;;;20.80;99.90;;;;;;5091198;28;20339;-85
2023/07/20 06:06:24;;;;;;;;;;;21.00;99.90;;;;;;5090762;28;19967;-85
2023/07/20 06:08:49;;;;;;;;;;;21.20;99.90;;;;;;5067617;28;19931;-85
2023/07/20 06:11:16;;;;;;;;;;;21.40;99.90;;;;;;5088759;28;20389;-84
2023/07/20 06:13:43;;;;;;;;;;;21.60;99.90;;;;;;5074377;28;19972;-85
2023/07/20 06:16:09;;;;;;;;;;;21.70;99.90;;;;;;5093522;28;19932;-86
2023/07/20 06:18:34;;;;;;;;;;;21.70;99.90;;;;;;5075833;28;19935;-87
2023/07/20 06:21:00;;;;;;;;;;;21.80;99.90;;;;;;5067422;28;19928;-83
2023/07/20 06:23:25;;;;;;;;;;;22.00;99.90;;;;;;5064450;28;20362;-84
2023/07/20 06:25:51;;;;;;;;;;;22.10;99.90;;;;;;5084985;28;20054;-85
2023/07/20 06:28:17;;;;;;;;;;;22.20;99.90;;;;;;5068442;28;19939;-83
2023/07/20 06:30:43;;;;;;;;;;;22.30;99.90;;;;;;5065490;28;19925;-85
2023/07/20 06:33:09;;;;;;;;;;;22.40;99.90;;;;;;5091613;28;19934;-83
2023/07/20 06:35:37;;;;;;;;;;;22.50;99.90;;;;;;5091898;28;19950;-83
2023/07/20 06:38:03;;;;;;;;;;;22.60;99.90;;;;;;5089473;28;20294;-84
2023/07/20 06:40:29;;;;;;;;;;;22.80;99.90;;;;;;5090725;28;19924;-83
2023/07/20 06:42:55;;;;;;;;;;;22.90;99.90;;;;;;5083213;28;19925;-85
2023/07/20 06:45:21;;;;;;;;;;;22.80;99.90;;;;;;5084068;28;19943;-89
2023/07/20 06:47:46;;;;;;;;;;;22.90;99.90;;;;;;5085028;28;19930;-87
2023/07/20 06:50:12;;;;;;;;;;;23.00;99.90;;;;;;5085397;28;20027;-84
2023/07/20 06:52:39;;;;;;;;;;;23.10;99.90;;;;;;5086041;28;19981;-82
2023/07/20 06:55:06;;;;;;;;;;;23.20;99.90;;;;;;5084307;28;20015;-87
2023/07/20 06:57:31;;;;;;;;;;;23.20;99.90;;;;;;5085098;28;20489;-83
2023/07/20 06:59:57;;;;;;;;;;;23.30;99.90;;;;;;5067256;28;20394;-82
2023/07/20 07:02:23;;;;;;;;;;;23.30;99.90;;;;;;5083659;28;20005;-83
2023/07/20 07:04:48;;;;;;;;;;;23.40;99.90;;;;;;5085506;28;19935;-82
2023/07/20 07:07:14;;;;;;;;;;;23.50;99.90;;;;;;5082725;28;19924;-83
2023/07/20 07:09:40;;;;;;;;;;;23.60;99.90;;;;;;5085328;28;19935;-83
2023/07/20 07:12:06;;;;;;;;;;;23.80;99.90;;;;;;5086589;28;19928;-83
2023/07/20 07:14:31;;;;;;;;;;;23.80;99.90;;;;;;5064694;28;19928;-82
2023/07/20 07:16:57;;;;;;;;;;;23.90;99.90;;;;;;5066467;28;19935;-83
2023/07/20 07:19:22;;;;;;;;;;;24.00;99.90;;;;;;5085587;28;20447;-84
2023/07/20 07:21:48;;;;;;;;;;;24.10;99.90;;;;;;5082969;28;19932;-84
2023/07/20 07:24:13;;;;;;;;;;;24.20;99.90;;;;;;5083105;28;19924;-84
2023/07/20 07:26:39;;;;;;;;;;;24.30;99.90;;;;;;5066402;28;19994;-84
2023/07/20 07:29:05;;;;;;;;;;;24.10;97.50;;;;;;5082861;28;19924;-85
2023/07/20 07:31:33;;;;;;;;;;;23.80;99.90;;;;;;5066873;28;19924;-83
2023/07/20 07:33:59;;;;;;;;;;;23.80;99.90;;;;;;5084367;28;20340;-87
2023/07/20 07:36:25;;;;;;;;;;;24.00;99.90;;;;;;5065765;28;19927;-84
2023/07/20 07:38:50;;;;;;;;;;;24.10;99.90;;;;;;5082945;28;19943;-84
2023/07/20 07:41:16;;;;;;;;;;;24.30;99.90;;;;;;5066549;28;19977;-85
2023/07/20 07:43:41;;;;;;;;;;;24.50;99.90;;;;;;5082314;28;20696;-84
2023/07/20 07:46:07;;;;;;;;;;;24.50;99.90;;;;;;5065883;28;19924;-86
2023/07/20 07:48:32;;;;;;;;;;;24.40;98.30;;;;;;5087677;28;19970;-87
2023/07/20 07:50:58;;;;;;;;;;;24.40;97.30;;;;;;5069851;28;19924;-86
2023/07/20 07:53:25;;;;;;;;;;;24.60;98.00;;;;;;5089292;28;19968;-83
2023/07/20 07:55:51;;;;;;;;;;;24.80;96.10;;;;;;5069802;28;20275;-84
2023/07/20 07:58:17;;;;;;;;;;;24.90;97.60;;;;;;5072956;28;19931;-85
2023/07/20 08:00:44;;;;;;;;;;;24.80;94.10;;;;;;5089427;28;19924;-85
2023/07/20 08:03:09;;;;;;;;;;;24.90;95.40;;;;;;5085174;28;19930;-84
2023/07/20 08:05:35;;;;;;;;;;;25.00;92.40;;;;;;5089650;28;19924;-83
2023/07/20 08:08:04;;;;;;;;;;;25.30;92.00;;;;;;5087306;28;19932;-84
2023/07/20 08:10:30;;;;;;;;;;;25.20;92.90;;;;;;5088457;28;19928;-85
2023/07/20 08:12:57;;;;;;;;;;;24.60;94.80;;;;;;5077143;28;20289;-83
2023/07/20 08:15:23;;;;;;;;;;;23.80;95.10;;;;;;5088280;28;19989;-85
2023/07/20 08:17:51;;;;;;;;;;;22.90;97.60;;;;;;5090675;28;19925;-84
2023/07/20 08:20:17;;;;;;;;;;;22.10;98.60;;;;;;5090795;28;19928;-85
2023/07/20 08:22:43;;;;;;;;;;;21.50;99.90;;;;;;5086482;28;20022;-85
2023/07/20 08:25:08;;;;;;;;;;;21.10;99.90;;;;;;5070834;28;20071;-83
2023/07/20 08:27:34;;;;;;;;;;;20.90;99.90;;;;;;5070446;28;20023;-85
2023/07/20 08:30:00;;;;;;;;;;;21.30;99.90;;;;;;5086958;28;19998;-84
2023/07/20 08:32:26;;;;;;;;;;;21.90;99.90;;;;;;5074958;28;19928;-83
2023/07/20 08:34:51;;;;;;;;;;;22.60;99.90;;;;;;5093466;28;19977;-85
2023/07/20 08:37:17;;;;;;;;;;;23.00;99.90;;;;;;5076045;28;19963;-84
2023/07/20 08:39:42;;;;;;;;;;;23.40;99.90;;;;;;5094813;28;20332;-84
2023/07/20 08:42:09;;;;;;;;;;;23.40;99.90;;;;;;5092430;28;20026;-85
2023/07/20 08:44:35;;;;;;;;;;;23.10;97.60;;;;;;5092419;28;19928;-85
2023/07/20 08:47:05;;;;;;;;;;;22.90;98.60;;;;;;5075034;28;20027;-85
2023/07/20 08:49:34;;;;;;;;;;;22.90;99.90;;;;;;5093775;28;19928;-83
2023/07/20 08:52:00;;;;;;;;;;;23.00;97.90;;;;;;5094089;28;20022;-86
2023/07/20 08:54:29;;;;;;;;;;;23.00;99.90;;;;;;5093026;28;19931;-85
2023/07/20 08:56:56;;;;;;;;;;;23.00;98.40;;;;;;5092976;28;19924;-84
2023/07/20 08:59:23;;;;;;;;;;;22.90;97.50;;;;;;5092700;28;20387;-83
2023/07/20 09:01:49;;;;;;;;;;;22.90;99.90;;;;;;5065770;28;19948;-87
2023/07/20 09:04:16;;;;;;;;;;;23.00;97.60;;;;;;5084764;28;20003;-84
2023/07/20 09:06:41;;;;;;;;;;;23.00;99.40;;;;;;5083608;28;19924;-83
2023/07/20 09:09:07;;;;;;;;;;;23.00;98.40;;;;;;5080679;28;19925;-88
2023/07/20 09:11:33;;;;;;;;;;;23.20;99.20;;;;;;5062777;28;19936;-84
2023/07/20 09:14:02;;;;;;;;;;;23.20;99.50;;;;;;5064291;28;19928;-87
2023/07/20 09:16:29;;;;;;;;;;;23.00;96.30;;;;;;5066250;28;19928;-89
2023/07/20 09:18:57;;;;;;;;;;;22.80;98.90;;;;;;5067250;28;20245;-83
2023/07/20 09:21:25;;;;;;;;;;;22.80;97.60;;;;;;5083064;28;20356;-88
2023/07/20 09:23:55;;;;;;;;;;;22.90;98.00;;;;;;5054091;28;20118;-86
2023/07/20 09:26:24;;;;;;;;;;;23.00;96.50;;;;;;5080339;28;19925;-87
2023/07/20 09:28:51;;;;;;;;;;;23.20;98.20;;;;;;5078645;28;19953;-84
2023/07/20 09:31:20;;;;;;;;;;;23.60;98.10;;;;;;5077573;28;20276;-87
2023/07/20 09:33:46;;;;;;;;;;;23.80;97.10;;;;;;5068977;28;19932;-87
2023/07/20 09:36:12;;;;;;;;;;;24.00;97.50;;;;;;5053944;28;19934;-85
2023/07/20 09:38:38;;;;;;;;;;;24.20;97.00;;;;;;5079109;28;19929;-84
2023/07/20 09:41:06;;;;;;;;;;;24.50;97.60;;;;;;5077957;28;20070;-83
2023/07/20 09:43:33;;;;;;;;;;;24.60;96.90;;;;;;5069533;28;19931;-85
2023/07/20 09:45:59;;;;;;;;;;;24.80;98.10;;;;;;5093457;28;20015;-83
2023/07/20 09:48:26;;;;;;;;;;;24.40;95.20;;;;;;5056423;28;20073;-85
2023/07/20 09:50:52;;;;;;;;;;;24.00;97.30;;;;;;5092228;28;20428;-85
2023/07/20 09:53:18;;;;;;;;;;;23.40;99.90;;;;;;5090076;28;19924;-85
2023/07/20 09:55:44;;;;;;;;;;;22.80;99.90;;;;;;5090867;28;19940;-83
2023/07/20 09:58:10;;;;;;;;;;;22.00;99.90;;;;;;5085643;28;20420;-86
2023/07/20 10:00:39;;;;;;;;;;;21.30;99.90;;;;;;5059176;28;19928;-83
2023/07/20 10:03:05;;;;;;;;;;;20.60;99.90;;;;;;5088825;28;20267;-85
2023/07/20 10:05:35;;;;;;;;;;;20.00;99.90;;;;;;5087642;28;19935;-83
2023/07/20 10:08:02;;;;;;;;;;;19.60;99.90;;;;;;5070759;28;20039;-83
2023/07/20 10:10:28;;;;;;;;;;;19.40;99.90;;;;;;5089617;28;19928;-87
2023/07/20 10:12:57;;;;;;;;;;;19.10;99.90;;;;;;5091216;28;19924;-83
2023/07/20 10:15:30;;;;;;;;;;;18.80;99.90;;;;;;5087394;28;19928;-88
2023/07/20 10:18:28;;;;;;;;;;;18.70;99.90;;;;;;5073744;28;19931;-83
2023/07/20 10:20:55;;;;;;;;;;;18.50;99.90;;;;;;5028988;28;19924;-83
2023/07/20 10:23:21;;;;;;;;;;;18.40;99.90;;;;;;5092332;28;19950;-83
2023/07/20 10:25:47;;;;;;;;;;;18.40;99.90;;;;;;5072545;28;19928;-83
2023/07/20 10:28:13;;;;;;;;;;;18.50;99.90;;;;;;5073388;28;20001;-84
2023/07/20 10:30:39;;;;;;;;;;;18.50;99.90;;;;;;5084201;28;20019;-84
2023/07/20 10:33:05;;;;;;;;;;;18.70;99.90;;;;;;5085326;28;20370;-83
2023/07/20 10:35:31;;;;;;;;;;;18.80;99.90;;;;;;5092317;28;19954;-83
2023/07/20 10:38:01;;;;;;;;;;;18.90;99.90;;;;;;5071566;28;19927;-86
2023/07/20 10:40:27;;;;;;;;;;;19.00;99.90;;;;;;5055099;28;19943;-84
2023/07/20 10:42:57;;;;;;;;;;;19.10;99.90;;;;;;5084749;28;20341;-84
2023/07/20 10:45:32;;;;;;;;;;;19.20;99.90;;;;;;5084098;28;19924;-83
2023/07/20 10:47:58;;;;;;;;;;;19.30;99.90;;;;;;5078707;28;20010;-83
2023/07/20 10:50:24;;;;;;;;;;;19.40;99.90;;;;;;5086568;28;20040;-84
2023/07/20 10:53:04;;;;;;;;;;;19.60;99.90;;;;;;5090892;28;19924;-86
2023/07/20 10:55:31;;;;;;;;;;;19.70;99.90;;;;;;5087793;28;19928;-84
2023/07/20 10:58:06;;;;;;;;;;;19.90;99.90;;;;;;5085876;28;20301;-83
2023/07/20 11:00:32;;;;;;;;;;;20.00;99.90;;;;;;5084314;28;19953;-82
2023/07/20 11:02:59;;;;;;;;;;;20.10;99.90;;;;;;5091633;28;19924;-86
2023/07/20 11:05:34;;;;;;;;;;;20.20;99.90;;;;;;5090090;28;19935;-86
2023/07/20 11:08:00;;;;;;;;;;;20.30;99.90;;;;;;5090409;28;20390;-83
2023/07/20 11:10:26;;;;;;;;;;;20.40;99.90;;;;;;5073127;28;19928;-82
2023/07/20 11:13:10;;;;;;;;;;;20.60;99.90;;;;;;5091093;28;19996;-82
2023/07/20 11:15:46;;;;;;;;;;;21.00;99.90;;;;;;5081308;28;20075;-82
2023/07/20 11:18:12;;;;;;;;;;;21.50;99.90;;;;;;5091145;28;19928;-85
2023/07/20 11:20:37;;;;;;;;;;;21.80;99.90;;;;;;5062908;28;19924;-81
2023/07/20 11:23:03;;;;;;;;;;;22.20;99.90;;;;;;5088900;28;19985;-82
2023/07/20 11:25:36;;;;;;;;;;;22.50;99.90;;;;;;5072850;28;19946;-82
2023/07/20 11:28:01;;;;;;;;;;;22.80;99.90;;;;;;5089315;28;19924;-82
2023/07/20 11:30:32;;;;;;;;;;;23.00;99.90;;;;;;5072971;28;20326;-82
2023/07/20 11:32:57;;;;;;;;;;;23.20;99.90;;;;;;5090972;28;19924;-83
2023/07/20 11:35:23;;;;;;;;;;;23.40;99.90;;;;;;5090786;28;20373;-83
2023/07/20 11:37:48;;;;;;;;;;;23.50;99.90;;;;;;5071478;28;19924;-84
2023/07/20 11:40:14;;;;;;;;;;;23.60;99.90;;;;;;5073235;28;19935;-82
2023/07/20 11:42:40;;;;;;;;;;;23.60;99.90;;;;;;5090607;28;20342;-82
2023/07/20 11:45:06;;;;;;;;;;;23.50;99.90;;;;;;5090415;28;20275;-82
2023/07/20 11:47:32;;;;;;;;;;;23.30;99.90;;;;;;5089178;28;19935;-82
2023/07/20 11:50:02;;;;;;;;;;;23.10;99.90;;;;;;5090059;28;19924;-82
2023/07/20 11:52:28;;;;;;;;;;;22.80;99.90;;;;;;5071600;28;20459;-83
2023/07/20 11:54:54;;;;;;;;;;;22.50;99.90;;;;;;5089951;28;20004;-83
2023/07/20 11:57:20;;;;;;;;;;;22.30;99.90;;;;;;5071542;28;19928;-82
2023/07/20 12:00:01;;;;;;;;;;;22.10;99.90;;;;;;5088460;28;19927;-83
2023/07/20 12:02:27;;;;;;;;;;;21.90;99.90;;;;;;5088161;28;19966;-83
2023/07/20 12:04:53;;;;;;;;;;;21.80;99.90;;;;;;5069794;28;19970;-84
2023/07/20 12:07:19;;;;;;;;;;;21.80;99.90;;;;;;5088887;28;19932;-86
2023/07/20 12:10:02;;;;;;;;;;;21.90;99.90;;;;;;5092077;28;19935;-83
2023/07/20 12:12:28;;;;;;;;;;;21.90;99.90;;;;;;5094544;28;20010;-86
2023/07/20 12:14:53;;;;;;;;;;;22.10;99.90;;;;;;5094306;28;20050;-82
2023/07/20 12:17:19;;;;;;;;;;;22.10;99.90;;;;;;5075831;28;19935;-82
2023/07/20 12:19:45;;;;;;;;;;;22.20;99.90;;;;;;5075481;28;20275;-82
2023/07/20 12:22:12;;;;;;;;;;;22.10;99.90;;;;;;5093922;28;19931;-83
2023/07/20 12:24:37;;;;;;;;;;;22.10;99.90;;;;;;5070086;28;19931;-85
2023/07/20 12:27:03;;;;;;;;;;;22.10;99.90;;;;;;5093715;28;19924;-82
2023/07/20 12:29:29;;;;;;;;;;;21.90;99.90;;;;;;5092868;28;19933;-83
2023/07/20 12:31:55;;;;;;;;;;;21.70;99.90;;;;;;5076299;28;20425;-82
2023/07/20 12:34:20;;;;;;;;;;;21.60;99.90;;;;;;5093861;28;19936;-82
2023/07/20 12:36:46;;;;;;;;;;;21.50;99.90;;;;;;5093712;28;19932;-83
2023/07/20 12:39:11;;;;;;;;;;;21.30;99.90;;;;;;5093813;28;19950;-82
2023/07/20 12:41:37;;;;;;;;;;;21.10;99.90;;;;;;5092839;28;20389;-83
2023/07/20 12:44:02;;;;;;;;;;;20.90;99.90;;;;;;5075785;28;20341;-82
2023/07/20 12:46:29;;;;;;;;;;;20.80;99.90;;;;;;5093426;28;19931;-83
2023/07/20 12:48:55;;;;;;;;;;;20.60;99.90;;;;;;5093732;28;19953;-82
2023/07/20 12:51:21;;;;;;;;;;;20.50;99.90;;;;;;5074362;28;20329;-83
2023/07/20 12:53:46;;;;;;;;;;;20.40;99.90;;;;;;5093881;28;19932;-82
2023/07/20 12:56:12;;;;;;;;;;;20.40;99.90;;;;;;5075650;28;19966;-84
2023/07/20 12:58:38;;;;;;;;;;;20.30;99.90;;;;;;5094195;28;19928;-82
2023/07/20 13:01:04;;;;;;;;;;;20.20;99.90;;;;;;5071825;28;19924;-84
2023/07/20 13:03:30;;;;;;;;;;;20.10;99.90;;;;;;5091959;28;19924;-88
2023/07/20 13:05:55;;;;;;;;;;;20.10;99.90;;;;;;5096032;28;20423;-83
2023/07/20 13:08:25;;;;;;;;;;;20.20;99.90;;;;;;5059564;28;19927;-83
2023/07/20 13:10:51;;;;;;;;;;;20.20;99.90;;;;;;5095007;28;19924;-82
2023/07/20 13:13:17;;;;;;;;;;;20.40;99.90;;;;;;5094220;28;19975;-83
2023/07/20 13:15:43;;;;;;;;;;;20.60;99.90;;;;;;5053767;28;20280;-88
2023/07/20 13:18:08;;;;;;;;;;;20.90;99.90;;;;;;5070392;28;20366;-82
2023/07/20 13:20:34;;;;;;;;;;;21.20;99.90;;;;;;5092785;28;19924;-84
2023/07/20 13:23:00;;;;;;;;;;;21.40;99.90;;;;;;5093568;28;19932;-82
2023/07/20 13:25:25;;;;;;;;;;;21.50;99.90;;;;;;5075249;28;19924;-86
2023/07/20 13:27:51;;;;;;;;;;;21.50;99.90;;;;;;5092845;28;20024;-83
2023/07/20 13:30:17;;;;;;;;;;;21.40;99.90;;;;;;5091931;28;20329;-81
2023/07/20 13:32:43;;;;;;;;;;;21.30;99.90;;;;;;5073102;28;19948;-85
2023/07/20 13:35:09;;;;;;;;;;;21.20;99.90;;;;;;5089777;28;20074;-84
2023/07/20 13:37:35;;;;;;;;;;;21.20;99.90;;;;;;5091014;28;19928;-82
2023/07/20 13:40:00;;;;;;;;;;;21.20;99.90;;;;;;5073464;28;20384;-82
2023/07/20 13:42:26;;;;;;;;;;;21.20;99.90;;;;;;5089534;28;20011;-83
2023/07/20 13:44:52;;;;;;;;;;;21.30;99.90;;;;;;5090209;28;19928;-85
2023/07/20 13:47:18;;;;;;;;;;;21.30;99.90;;;;;;5073670;28;20374;-83
2023/07/20 13:49:43;;;;;;;;;;;21.30;99.90;;;;;;5091550;28;19924;-83
2023/07/20 13:52:09;;;;;;;;;;;21.30;99.90;;;;;;5092711;28;19981;-86
2023/07/20 13:54:35;;;;;;;;;;;21.50;99.90;;;;;;5092569;28;20370;-83
2023/07/20 13:57:00;;;;;;;;;;;21.60;99.90;;;;;;5092439;28;20513;-84
2023/07/20 13:59:26;;;;;;;;;;;21.70;99.90;;;;;;5072367;28;19932;-83
2023/07/20 14:01:51;;;;;;;;;;;21.90;99.90;;;;;;5092572;28;19970;-82
2023/07/20 14:04:17;;;;;;;;;;;22.10;99.90;;;;;;5092098;28;19959;-83
2023/07/20 14:06:43;;;;;;;;;;;22.20;99.90;;;;;;5074381;28;20011;-83
2023/07/20 14:09:09;;;;;;;;;;;22.50;99.90;;;;;;5091255;28;19932;-84
2023/07/20 14:11:34;;;;;;;;;;;22.60;99.90;;;;;;5092257;28;19931;-85